Latest Coastal Weather Observations for Rhyll

IDV60701

Issued at 8:45 pm EST Saturday 19 April 2014 (issued every 10 minutes, with the page automatically refreshed every 10 minutes)

About coastal observations | Map of coastal stations | Coastal observations for VIC | Marine services | Other Formats
Station Details ID: 086373 Name: RHYLL Lat: -38.46 Lon: 145.31 Height: 13.4 m
Data from the previous 72 hours. | See also: Recent months at Rhyll
Date/Time
EST
Temp

°C
Wind Pressure Rain
since 9am
mm
Weather Cloud Vis
km
Sea
Height
m
Swell
Dir
 
Speed
knots
Gust
knots
hPa Trend Height
m
Period
s
Dir
19/08:30pm 13.3 W 3 4 1018.5 - 0.0 - - - - - - -
19/08:00pm 13.3 WSW 3 5 1018.5 - 0.0 - - - - - - -
19/07:30pm 13.2 WSW 3 5 1018.6 - 0.0 - - - - - - -
19/07:00pm 13.2 W 3 4 1018.5 - 0.0 - - - - - - -
19/06:30pm 13.4 WSW 2 4 1018.5 - 0.0 - - - - - - -
19/06:00pm 13.6 WSW 3 5 1018.4 - 0.0 - - - - - - -
19/05:30pm 13.8 W 2 4 1018.3 - 0.0 - - - - - - -
19/05:00pm 13.7 WSW 4 7 1018.4 - 0.0 - - - - - - -
19/04:30pm 12.8 WNW 1 2 1018.6 - 0.0 - - - - - - -
19/04:00pm 12.6 SW 11 17 1018.8 - 0.0 - - - - - - -
19/03:30pm 15.5 SW 7 12 1018.6 - 0.0 - - - - - - -
19/03:00pm 14.9 WSW 6 11 1018.7 - 0.0 - - - - - - -
19/02:30pm 14.7 WSW 6 11 1018.6 - 0.0 - - - - - - -
19/02:00pm 14.4 SW 4 7 1018.7 - 0.0 - - - - - - -
19/01:30pm 14.7 W 4 7 1019.0 - 0.0 - - - - - - -
19/01:00pm 13.3 W 6 11 1019.3 - 0.0 - - - - - - -
19/12:30pm 15.7 SW 8 13 1019.4 - 0.0 - - - - - - -
19/12:00pm 15.3 WSW 6 13 1019.8 - 0.0 - - - - - - -
19/11:30am 15.2 WSW 7 13 1019.9 - 0.0 - - - - - - -
19/11:00am 14.9 SSW 8 12 1020.0 - 0.0 - - - - - - -
19/10:30am 13.5 SW 11 17 1020.1 - 0.0 - - - - - - -
19/10:00am 14.9 SW 7 13 1020.1 - 0.0 - - - - - - -
19/09:30am 14.0 WSW 3 9 1020.0 - 0.0 - - - - - - -
19/09:00am 12.8 W 4 7 1019.9 - 1.4 - - - - - - -
19/08:30am 13.7 W 5 10 1019.7 - 1.4 - - - - - - -
19/08:00am 14.2 SW 5 9 1019.5 - 1.4 - - - - - - -
19/07:30am 13.3 W 4 6 1019.2 - 1.4 - - - - - - -
19/07:00am 12.9 WSW 3 6 1018.9 - 1.4 - - - - - - -
19/06:30am 13.2 WSW 4 7 1018.8 - 1.4 - - - - - - -
19/06:00am 13.2 WSW 5 9 1018.7 - 1.4 - - - - - - -
19/05:30am 12.9 WSW 6 12 1018.6 - 1.4 - - - - - - -
19/05:00am 12.9 WSW 5 10 1018.5 - 1.4 - - - - - - -
19/04:30am 12.2 W 4 7 1018.4 - 1.4 - - - - - - -
19/04:00am 13.5 WSW 6 14 1018.3 - 1.4 - - - - - - -
19/03:30am 13.4 WSW 4 7 1018.4 - 1.4 - - - - - - -
19/03:00am 13.5 SW 8 11 1018.5 - 1.4 - - - - - - -
19/02:30am 13.9 SW 10 17 1018.6 - 1.4 - - - - - - -
19/02:00am 13.7 WSW 4 7 1018.8 - 1.4 - - - - - - -
19/01:30am 14.1 SW 8 14 1019.0 - 1.4 - - - - - - -
19/01:00am 14.2 SW 8 14 1019.0 - 1.4 - - - - - - -
19/12:30am 14.2 SW 9 14 1019.0 - 1.4 - - - - - - -
19/12:00am 13.8 SW 9 18 1018.9 - 1.4 Recent precip. - - - - - -
 
Date/Time
EST
Temp

°C
Wind Pressure Rain
since 9am
mm
Weather Cloud Vis
km
Sea
Height
m
Swell
Dir
 
Speed
knots
Gust
knots
hPa Trend Height
m
Period
s
Dir
18/11:30pm 13.7 SW 8 13 1018.9 - 1.2 - - - - - - -
18/11:00pm 13.6 SW 9 15 1019.0 - 1.2 - - - - - - -
18/10:30pm 11.8 SW 9 17 1019.3 - 1.2 - - - - - - -
18/10:00pm 12.0 SSW 8 20 1019.3 - 1.2 - - - - - - -
18/09:30pm 14.3 SW 9 15 1019.2 - 0.6 - - - - - - -
18/09:00pm 13.9 SW 11 17 1019.1 - 0.6 - - - - - - -
18/08:30pm 14.1 SW 9 15 1018.8 - 0.6 - - - - - - -
18/08:00pm 14.4 WSW 7 18 1018.7 - 0.6 - - - - - - -
18/07:30pm 14.4 WSW 7 12 1018.6 - 0.6 - - - - - - -
18/07:00pm 14.6 SW 12 19 1018.5 - 0.6 - - - - - - -
18/06:30pm 14.6 SW 9 17 1018.2 - 0.6 - - - - - - -
18/06:00pm 14.5 SW 10 16 1018.1 - 0.6 - - - - - - -
18/05:30pm 15.0 WSW 7 12 1017.8 - 0.6 - - - - - - -
18/05:00pm 15.7 WSW 9 16 1017.4 - 0.6 - - - - - - -
18/04:30pm 15.7 WSW 9 15 1017.2 - 0.6 - - - - - - -
18/04:00pm 16.0 SW 12 20 1016.9 - 0.6 - - - - - - -
18/03:30pm 16.9 SW 13 23 1016.6 - 0.6 - - - - - - -
18/03:00pm 17.1 SW 13 21 1016.4 - 0.6 - - - - - - -
18/02:30pm 17.1 SW 13 24 1016.1 - 0.6 - - - - - - -
18/02:00pm 17.1 SW 14 23 1015.9 - 0.6 - - - - - - -
18/01:30pm 16.7 SW 13 20 1015.6 - 0.6 - - - - - - -
18/01:00pm 15.7 SW 10 24 1015.4 - 0.6 - - - - - - -
18/12:30pm 14.4 SW 11 17 1015.6 - 0.6 - - - - - - -
18/12:00pm 15.1 SW 11 18 1015.4 - 0.6 Recent precip. - - - - - -
18/11:30am 14.5 SW 10 16 1015.1 - 0.6 - - - - - - -
18/11:00am 14.2 SW 13 26 1015.0 - 0.2 - - - - - - -
18/10:30am 15.5 WSW 12 21 1014.7 - 0.0 - - - - - - -
18/10:00am 16.9 W 7 16 1014.5 - 0.0 - - - - - - -
18/09:30am 16.7 NW 5 10 1014.2 - 0.0 - - - - - - -
18/09:00am 16.3 NW 6 10 1014.3 - 0.0 - - - - - - -
18/08:30am 16.7 NW 4 7 1014.2 - 0.0 - - - - - - -
18/08:00am 16.0 NNW 4 8 1014.3 - 0.0 - - - - - - -
18/07:30am 14.9 N 6 8 1014.3 - 0.0 - - - - - - -
18/07:00am 15.1 N 7 10 1014.2 - 0.0 - - - - - - -
18/06:30am 15.4 N 9 11 1014.4 - 0.0 - - - - - - -
18/06:00am 15.4 NNW 9 13 1014.5 - 0.0 - - - - - - -
18/05:30am 15.3 NW 4 8 1014.7 - 0.0 - - - - - - -
18/05:00am 15.1 NW 3 7 1014.7 - 0.0 - - - - - - -
18/04:30am 15.2 NW 4 7 1014.8 - 0.0 - - - - - - -
18/04:00am 15.3 NW 2 5 1014.9 - 0.0 - - - - - - -
18/03:30am 15.2 W 4 7 1015.0 - 0.0 - - - - - - -
18/03:00am 15.9 NW 5 11 1015.2 - 0.0 - - - - - - -
18/02:30am 15.7 NNW 8 11 1015.1 - 0.0 - - - - - - -
18/02:00am 15.7 N 6 8 1015.2 - 0.0 - - - - - - -
18/01:30am 15.7 NNE 4 7 1015.6 - 0.0 - - - - - - -
18/01:00am 15.8 N 3 6 1016.1 - 0.0 - - - - - - -
18/12:30am 15.7 NE 7 8 1016.3 - 0.0 - - - - - - -
18/12:00am 14.6 E 1 5 1016.7 - 0.0 - - - - - - -
 
Date/Time
EST
Temp

°C
Wind Pressure Rain
since 9am
mm
Weather Cloud Vis
km
Sea
Height
m
Swell
Dir
 
Speed
knots
Gust
knots
hPa Trend Height
m
Period
s
Dir
17/11:30pm 15.2 CALM 0 0 1017.1 - 0.0 - - - - - - -
17/11:00pm 15.7 SSW 2 3 1017.4 - 0.0 - - - - - - -
17/10:30pm 16.3 E 3 6 1017.8 - 0.0 - - - - - - -
17/10:00pm 16.2 N 3 5 1017.8 - 0.0 - - - - - - -
17/09:30pm 15.6 ENE 3 4 1017.8 - 0.0 - - - - - - -
17/09:00pm 15.2 ENE 3 5 1017.7 - 0.0 - - - - - - -
17/08:30pm 15.4 E 3 5 1017.8 - 0.0 - - - - - - -
17/08:00pm 15.5 E 5 7 1017.9 - 0.0 - - - - - - -
17/07:30pm 16.3 ESE 3 5 1018.1 - 0.0 - - - - - - -
17/07:00pm 16.5 ESE 4 8 1018.1 - 0.0 - - - - - - -
17/06:30pm 16.5 ESE 5 8 1018.1 - 0.0 - - - - - - -
17/06:00pm 16.4 SSE 2 3 1018.1 - 0.0 - - - - - - -
17/05:30pm 17.1 SSE 3 5 1018.0 - 0.0 - - - - - - -
17/05:00pm 18.5 SSE 4 6 1018.1 - 0.0 - - - - - - -
17/04:30pm 19.3 S 3 4 1018.3 - 0.0 - - - - - - -
17/04:00pm 19.7 S 2 4 1018.4 - 0.0 - - - - - - -
17/03:30pm 20.0 S 3 4 1018.7 - 0.0 - - - - - - -
17/03:00pm 20.8 S 3 6 1018.8 - 0.0 - - - - - - -
17/02:30pm 20.7 ESE 2 4 1019.0 - 0.0 - - - - - - -
17/02:00pm 20.5 ESE 3 3 1019.1 - 0.0 - - - - - - -
17/01:30pm 21.4 E 4 4 1019.4 - 0.0 - - - - - - -
17/01:00pm 21.4 E 4 5 1019.8 - 0.0 - - - - - - -
17/12:30pm 20.7 E 3 4 1020.0 - 0.0 - - - - - - -
17/12:00pm 21.2 ENE 3 4 1020.4 - 0.0 - - - - - - -
17/11:30am 20.8 ENE 3 4 1020.6 - 0.0 - - - - - - -
17/11:00am 20.2 NE 3 4 1020.9 - 0.0 - - - - - - -
17/10:30am 19.7 NE 3 4 1020.9 - 0.0 - - - - - - -
17/10:00am 18.3 NNE 3 4 1021.0 - 0.0 - - - - - - -
17/09:30am 16.9 N 3 5 1021.0 - 0.0 - - - - - - -
17/09:00am 16.7 NE 4 5 1021.3 - 0.0 - - - - - - -
17/08:30am 15.3 NE 3 6 1021.1 - 0.0 - - - - - - -
17/08:00am 14.2 N 2 4 1021.0 - 0.0 - - - - - - -
17/07:30am 13.3 NE 3 4 1020.7 - 0.0 - - - - - - -
17/07:00am 13.0 NNE 3 5 1020.4 - 0.0 - - - - - - -
17/06:30am 12.9 N 2 4 1020.2 - 0.0 - - - - - - -
17/06:00am 13.4 NNW 2 3 1020.1 - 0.0 - - - - - - -
17/05:30am 13.7 NNE 2 4 1019.8 - 0.0 - - - - - - -
17/05:00am 13.8 ENE 1 4 1019.8 - 0.0 - - - - - - -
17/04:30am 13.8 NE 5 7 1019.7 - 0.0 - - - - - - -
17/04:00am 13.9 NNE 3 6 1019.4 - 0.0 - - - - - - -
17/03:30am 14.0 NNE 5 8 1019.4 - 0.0 - - - - - - -
17/03:00am 14.0 NNE 3 6 1019.4 - 0.0 - - - - - - -
17/02:30am 14.1 NNE 3 6 1019.4 - 0.0 - - - - - - -
17/02:00am 14.6 NNE 6 9 1019.4 - 0.0 - - - - - - -
17/01:30am 14.7 NNE 5 8 1019.4 - 0.0 - - - - - - -
17/01:00am 14.7 NNE 8 11 1019.5 - 0.0 - - - - - - -
17/12:30am 14.6 NNE 6 10 1019.6 - 0.0 - - - - - - -
17/12:00am 14.8 NNE 6 10 1019.6 - 0.0 - - - - - - -
 
Date/Time
EST
Temp

°C
Wind Pressure Rain
since 9am
mm
Weather Cloud Vis
km
Sea
Height
m
Swell
Dir
 
Speed
knots
Gust
knots
hPa Trend Height
m
Period
s
Dir
16/11:30pm 14.9 NNE 6 9 1019.6 - 0.0 - - - - - - -
16/11:00pm 14.7 N 3 7 1019.6 - 0.0 - - - - - - -
16/10:30pm 15.0 NW 2 2 1019.7 - 0.0 - - - - - - -
16/10:00pm 15.0 N 2 2 1019.7 - 0.0 - - - - - - -
16/09:30pm 15.5 NNW 2 3 1019.8 - 0.0 - - - - - - -
16/09:00pm 15.4 CALM 0 2 1019.7 - 0.0 - - - - - - -

Other Formats:

Comma delimited format used in spreadsheet applications
http://www.bom.gov.au/fwo/IDV60701/IDV60701.94892.axf

JavaScript Object Notation format (JSON) in row-major order
http://www.bom.gov.au/fwo/IDV60701/IDV60701.94892.json